地図

経路データ

SID SEASON NUMBER BASIN SUBBASIN NAME ISO_TIME NATURE LAT LON WMO_WIND WMO_PRES WMO_AGENCY TRACK_TYPE DIST2LAND LANDFALL IFLAG USA_AGENCY USA_ATCF_ID USA_LAT USA_LON USA_RECORD USA_STATUS USA_WIND USA_PRES USA_SSHS USA_R34_NE USA_R34_SE USA_R34_SW USA_R34_NW USA_R50_NE USA_R50_SE USA_R50_SW USA_R50_NW USA_R64_NE USA_R64_SE USA_R64_SW USA_R64_NW USA_POCI USA_ROCI USA_RMW USA_EYE TOKYO_LAT TOKYO_LON TOKYO_GRADE TOKYO_WIND TOKYO_PRES TOKYO_R50_DIR TOKYO_R50_LONG TOKYO_R50_SHORT TOKYO_R30_DIR TOKYO_R30_LONG TOKYO_R30_SHORT TOKYO_LAND CMA_LAT CMA_LON CMA_CAT CMA_WIND CMA_PRES HKO_LAT HKO_LON HKO_CAT HKO_WIND HKO_PRES NEWDELHI_LAT NEWDELHI_LON NEWDELHI_GRADE NEWDELHI_WIND NEWDELHI_PRES NEWDELHI_CI NEWDELHI_DP NEWDELHI_POCI REUNION_LAT REUNION_LON REUNION_TYPE REUNION_WIND REUNION_PRES REUNION_TNUM REUNION_CI REUNION_RMW REUNION_R34_NE REUNION_R34_SE REUNION_R34_SW REUNION_R34_NW REUNION_R50_NE REUNION_R50_SE REUNION_R50_SW REUNION_R50_NW REUNION_R64_NE REUNION_R64_SE REUNION_R64_SW REUNION_R64_NW BOM_LAT BOM_LON BOM_TYPE BOM_WIND BOM_PRES BOM_TNUM BOM_CI BOM_RMW BOM_R34_NE BOM_R34_SE BOM_R34_SW BOM_R34_NW BOM_R50_NE BOM_R50_SE BOM_R50_SW BOM_R50_NW BOM_R64_NE BOM_R64_SE BOM_R64_SW BOM_R64_NW BOM_ROCI BOM_POCI BOM_EYE BOM_POS_METHOD BOM_PRES_METHOD NADI_LAT NADI_LON NADI_CAT NADI_WIND NADI_PRES WELLINGTON_LAT WELLINGTON_LON WELLINGTON_WIND WELLINGTON_PRES DS824_LAT DS824_LON DS824_STAGE DS824_WIND DS824_PRES TD9636_LAT TD9636_LON TD9636_STAGE TD9636_WIND TD9636_PRES TD9635_LAT TD9635_LON TD9635_WIND TD9635_PRES TD9635_ROCI NEUMANN_LAT NEUMANN_LON NEUMANN_CLASS NEUMANN_WIND NEUMANN_PRES MLC_LAT MLC_LON MLC_CLASS MLC_WIND MLC_PRES USA_GUST BOM_GUST BOM_GUST_PER REUNION_GUST REUNION_GUST_PER USA_SEAHGT USA_SEARAD_NE USA_SEARAD_SE USA_SEARAD_SW USA_SEARAD_NW STORM_SPEED STORM_DIR
1919314N32302 1919 47 NA NA NOT_NAMED 1919-11-10 00:00:00 ET 32.0000 -58.5000 30 hurdat_atl main 1411 1411 O_____________ hurdat_atl AL051919 32.0000 -58.5000 EX 30 -4 12 215
1919314N32302 1919 47 NA NA NOT_NAMED 1919-11-10 03:00:00 ET 31.5028 -58.9109 main 1449 1449 P_____________ AL051919 31.5028 -58.9109 EX 30 -4 12 214
1919314N32302 1919 47 NA NA NOT_NAMED 1919-11-10 06:00:00 ET 31.0000 -59.3000 30 hurdat_atl main 1488 1481 O_____________ hurdat_atl AL051919 31.0000 -59.3000 EX 30 -4 12 212
1919314N32302 1919 47 NA NA NOT_NAMED 1919-11-10 09:00:00 ET 30.4923 -59.6571 main 1477 1414 P_____________ AL051919 30.4923 -59.6571 EX 32 -4 12 211
1919314N32302 1919 47 NA NA NOT_NAMED 1919-11-10 12:00:00 ET 30.0000 -60.0000 35 hurdat_atl main 1414 1361 O_____________ hurdat_atl AL051919 30.0000 -60.0000 EX 35 -4 11 212
1919314N32302 1919 47 NA NA NOT_NAMED 1919-11-10 15:00:00 ET 29.5350 -60.3573 main 1347 1295 P_____________ AL051919 29.5350 -60.3573 EX 35 -4 11 214
1919314N32302 1919 47 NA NA NOT_NAMED 1919-11-10 18:00:00 ET 29.1000 -60.7000 35 hurdat_atl main 1295 1242 O_____________ hurdat_atl AL051919 29.1000 -60.7000 EX 35 -4 10 214
1919314N32302 1919 47 NA NA NOT_NAMED 1919-11-10 21:00:00 ET 28.6849 -61.0072 main 1242 1190 P_____________ AL051919 28.6849 -61.0072 EX 37 -4 10 213
1919314N32302 1919 47 NA NA NOT_NAMED 1919-11-11 00:00:00 ET 28.3000 -61.3000 40 hurdat_atl main 1190 1147 O_____________ hurdat_atl AL051919 28.3000 -61.3000 EX 40 -4 9 215
1919314N32302 1919 47 NA NA NOT_NAMED 1919-11-11 03:00:00 ET 27.9349 -61.5998 main 1137 1095 P_____________ AL051919 27.9349 -61.5998 EX 42 -4 9 217
1919314N32302 1919 47 NA NA NOT_NAMED 1919-11-11 06:00:00 ET 27.6000 -61.9000 45 hurdat_atl main 1095 1053 O_____________ hurdat_atl AL051919 27.6000 -61.9000 EX 45 -4 8 219
1919314N32302 1919 47 NA NA NOT_NAMED 1919-11-11 09:00:00 ET 27.2774 -62.1999 main 1053 1012 P_____________ AL051919 27.2774 -62.1999 EX 47 -4 8 222
1919314N32302 1919 47 NA NA NOT_NAMED 1919-11-11 12:00:00 ET 27.0000 -62.5000 50 hurdat_atl main 1012 981 O_____________ hurdat_atl AL051919 27.0000 -62.5000 EX 50 -4 7 227
1919314N32302 1919 47 NA NA NOT_NAMED 1919-11-11 15:00:00 ET 26.7774 -62.7923 main 981 951 P_____________ AL051919 26.7774 -62.7923 EX 52 -4 7 233
1919314N32302 1919 47 NA NA NOT_NAMED 1919-11-11 18:00:00 ET 26.6000 -63.1000 55 hurdat_atl main 951 922 O_____________ hurdat_atl AL051919 26.6000 -63.1000 EX 55 -4 7 240
1919314N32302 1919 47 NA NA NOT_NAMED 1919-11-11 21:00:00 ET 26.4350 -63.4500 main 922 902 P_____________ AL051919 26.4350 -63.4500 EX 57 -4 7 244
1919314N32302 1919 47 NA NA NOT_NAMED 1919-11-12 00:00:00 TS 26.3000 -63.8000 60 hurdat_atl main 902 885 O_____________ hurdat_atl AL051919 26.3000 -63.8000 TS 60 0 6 247
1919314N32302 1919 47 NA NA NOT_NAMED 1919-11-12 03:00:00 TS 26.1849 -64.1074 main 885 869 P_____________ AL051919 26.1849 -64.1074 TS 60 0 6 250
1919314N32302 1919 47 NA NA NOT_NAMED 1919-11-12 06:00:00 TS 26.1000 -64.4000 60 hurdat_atl main 869 854 O_____________ hurdat_atl AL051919 26.1000 -64.4000 TS 60 0 6 252
1919314N32302 1919 47 NA NA NOT_NAMED 1919-11-12 09:00:00 TS 26.0124 -64.7001 main 854 851 P_____________ AL051919 26.0124 -64.7001 TS 60 0 5 259
1919314N32302 1919 47 NA NA NOT_NAMED 1919-11-12 12:00:00 TS 26.0000 -65.0000 60 hurdat_atl main 851 850 O_____________ hurdat_atl AL051919 26.0000 -65.0000 TS 60 0 5 278
1919314N32302 1919 47 NA NA NOT_NAMED 1919-11-12 15:00:00 TS 26.0899 -65.3001 main 861 858 P_____________ AL051919 26.0899 -65.3001 TS 60 0 6 299
1919314N32302 1919 47 NA NA NOT_NAMED 1919-11-12 18:00:00 TS 26.3000 -65.6000 60 hurdat_atl main 869 864 O_____________ hurdat_atl AL051919 26.3000 -65.6000 TS 60 0 8 313
1919314N32302 1919 47 NA NA NOT_NAMED 1919-11-12 21:00:00 TS 26.6201 -65.9222 main 886 886 P_____________ AL051919 26.6201 -65.9222 TS 57 0 9 323
1919314N32302 1919 47 NA NA NOT_NAMED 1919-11-13 00:00:00 TS 27.0000 -66.2000 55 hurdat_atl main 913 913 O_____________ hurdat_atl AL051919 27.0000 -66.2000 TS 55 0 9 331
1919314N32302 1919 47 NA NA NOT_NAMED 1919-11-13 03:00:00 TS 27.3799 -66.4025 main 945 945 P_____________ AL051919 27.3799 -66.4025 TS 55 0 8 339
1919314N32302 1919 47 NA NA NOT_NAMED 1919-11-13 06:00:00 TS 27.7000 -66.5000 55 hurdat_atl main 972 972 O_____________ hurdat_atl AL051919 27.7000 -66.5000 TS 55 0 5 349
1919314N32302 1919 47 NA NA NOT_NAMED 1919-11-13 09:00:00 TS 27.9024 -66.5177 main 993 993 P_____________ AL051919 27.9024 -66.5177 TS 52 0 3 16
1919314N32302 1919 47 NA NA NOT_NAMED 1919-11-13 12:00:00 TS 28.0000 -66.4000 50 hurdat_atl main 1007 1007 O_____________ hurdat_atl AL051919 28.0000 -66.4000 TS 50 0 3 66
1919314N32302 1919 47 NA NA NOT_NAMED 1919-11-13 15:00:00 TS 28.0374 -66.1676 main 1014 1014 P_____________ AL051919 28.0374 -66.1676 TS 50 0 5 90
1919314N32302 1919 47 NA NA NOT_NAMED 1919-11-13 18:00:00 TS 28.0000 -65.8000 50 hurdat_atl main 1031 1031 O_____________ hurdat_atl AL051919 28.0000 -65.8000 TS 50 0 7 100
1919314N32302 1919 47 NA NA NOT_NAMED 1919-11-13 21:00:00 TS 27.9147 -65.3599 main 1038 1038 P_____________ AL051919 27.9147 -65.3599 TS 47 0 9 103
1919314N32302 1919 47 NA NA NOT_NAMED 1919-11-14 00:00:00 TS 27.8000 -64.8000 45 hurdat_atl main 1053 1045 O_____________ hurdat_atl AL051919 27.8000 -64.8000 TS 45 0 11 102
1919314N32302 1919 47 NA NA NOT_NAMED 1919-11-14 03:00:00 TS 27.6926 -64.1299 main 1050 1044 P_____________ AL051919 27.6926 -64.1299 TS 45 0 13 99
1919314N32302 1919 47 NA NA NOT_NAMED 1919-11-14 06:00:00 TS 27.6000 -63.4000 45 hurdat_atl main 1052 1048 O_____________ hurdat_atl AL051919 27.6000 -63.4000 TS 45 0 13 100
1919314N32302 1919 47 NA NA NOT_NAMED 1919-11-14 09:00:00 TS 27.4748 -62.6915 main 1059 1059 P_____________ AL051919 27.4748 -62.6915 TS 42 0 12 95
1919314N32302 1919 47 NA NA NOT_NAMED 1919-11-14 12:00:00 TS 27.5000 -62.0000 40 hurdat_atl main 1081 1081 O_____________ hurdat_atl AL051919 27.5000 -62.0000 TS 40 0 13 73
1919314N32302 1919 47 NA NA NOT_NAMED 1919-11-14 15:00:00 TS 27.8397 -61.3359 main 1138 1138 P_____________ AL051919 27.8397 -61.3359 TS 40 0 14 55
1919314N32302 1919 47 NA NA NOT_NAMED 1919-11-14 18:00:00 TS 28.3000 -60.7000 40 hurdat_atl main 1213 1213 O_____________ hurdat_atl AL051919 28.3000 -60.7000 TS 40 0 14 53
1919314N32302 1919 47 NA NA NOT_NAMED 1919-11-14 21:00:00 TS 28.6723 -60.0773 main 1279 1279 P_____________ AL051919 28.6723 -60.0773 TS 37 0 13 56
1919314N32302 1919 47 NA NA NOT_NAMED 1919-11-15 00:00:00 TS 29.0000 -59.5000 35 hurdat_atl main 1336 1336 O_____________ hurdat_atl AL051919 29.0000 -59.5000 TS 35 0 11 58
1919314N32302 1919 47 NA NA NOT_NAMED 1919-11-15 03:00:00 TS 29.2646 -58.9844 main 1389 1389 P_____________ AL051919 29.2646 -58.9844 TS 35 0 10 60
1919314N32302 1919 47 NA NA NOT_NAMED 1919-11-15 06:00:00 TS 29.5000 -58.5000 35 hurdat_atl main 1433 1433 O_____________ hurdat_atl AL051919 29.5000 -58.5000 TS 35 0 10 61
1919314N32302 1919 47 NA NA NOT_NAMED 1919-11-15 09:00:00 TS 29.7348 -57.9995 main 1478 1478 P_____________ AL051919 29.7348 -57.9995 TS 32 -1 10 60
1919314N32302 1919 47 NA NA NOT_NAMED 1919-11-15 12:00:00 ET 30.0000 -57.5000 30 hurdat_atl main 1533 1533 O_____________ hurdat_atl AL051919 30.0000 -57.5000 EX 30 -4 11 55
1919314N32302 1919 47 NA NA NOT_NAMED 1919-11-15 15:00:00 ET 30.3304 -57.0009 main 1587 1587 P_____________ AL051919 30.3304 -57.0009 EX 30 -4 11 51
1919314N32302 1919 47 NA NA NOT_NAMED 1919-11-15 18:00:00 ET 30.7000 -56.5000 30 hurdat_atl main 1622 O_____________ hurdat_atl AL051919 30.7000 -56.5000 EX 30 -4 11 49

IBTrACS Databaseについて

本データベースは、米国NOAAが公開する1842年以降の世界の熱帯低気圧のベストトラックデータアーカイブInternational Best Track Archive for Climate Stewardship (IBTrACS)を、ウェブで閲覧しやすい形式に変換したものです。

最終更新日:2021-11-26